createdAt,value
2023-03-17T00:00:47.735Z,93622.38
2023-03-17T00:03:29.953Z,93605.94
2023-03-17T00:06:00.198Z,93625.59
2023-03-17T00:08:31.916Z,93629.03
2023-03-17T00:11:00.874Z,93625.78
2023-03-17T00:13:31.108Z,93624.66
2023-03-17T00:16:22.344Z,93624.66
2023-03-17T00:18:51.860Z,93625.03
2023-03-17T00:21:28.985Z,93623.63
2023-03-17T00:23:58.344Z,93629.91
2023-03-17T00:26:27.003Z,93622.47
2023-03-17T00:28:55.639Z,93626.94
2023-03-17T00:31:29.804Z,93618.13
2023-03-17T00:33:58.621Z,93613.88
2023-03-17T00:36:29.684Z,93628.25
2023-03-17T00:39:07.521Z,93626.84
2023-03-17T00:41:35.440Z,93622.03
2023-03-17T00:44:03.686Z,93627.72
2023-03-17T00:46:36.291Z,93632.38
2023-03-17T00:49:20.191Z,93626.47
2023-03-17T00:51:48.956Z,93620.88
2023-03-17T00:54:18.126Z,93619.06
2023-03-17T00:56:46.534Z,93625.94
2023-03-17T00:59:30.221Z,93626.16
2023-03-17T01:01:58.515Z,93621.91
2023-03-17T01:04:26.560Z,93628.22
2023-03-17T01:06:54.861Z,93631.28
2023-03-17T01:09:26.639Z,93624.59
2023-03-17T01:11:55.875Z,93636.75
2023-03-17T01:14:25.063Z,93631.09
2023-03-17T01:16:53.664Z,93621.75
2023-03-17T01:19:22.373Z,93635.50
2023-03-17T01:21:50.515Z,93643.81
2023-03-17T01:24:18.769Z,93638.13
2023-03-17T01:26:47.029Z,93633.28
2023-03-17T01:29:16.684Z,93634.72
2023-03-17T01:31:46.412Z,93634.09
2023-03-17T01:34:14.403Z,93631.66
2023-03-17T01:36:43.483Z,93633.06
2023-03-17T01:39:11.372Z,93634.06
2023-03-17T01:41:40.418Z,93623.72
2023-03-17T01:44:14.428Z,93646.00
2023-03-17T01:46:42.197Z,93640.13
2023-03-17T01:49:17.320Z,93629.19
2023-03-17T01:52:01.718Z,93642.13
2023-03-17T01:54:35.778Z,93640.47
2023-03-17T01:57:18.886Z,93651.38
2023-03-17T01:59:53.641Z,93646.72
2023-03-17T02:02:31.082Z,93645.09
2023-03-17T02:04:59.411Z,93639.06
2023-03-17T02:07:28.459Z,93652.16
2023-03-17T02:09:58.290Z,93647.72
2023-03-17T02:12:29.264Z,93648.53
2023-03-17T02:14:58.324Z,93643.88
2023-03-17T02:17:29.224Z,93650.38
2023-03-17T02:19:57.123Z,93667.19
2023-03-17T02:22:25.372Z,93669.03
2023-03-17T02:24:59.737Z,93669.63
2023-03-17T02:27:35.031Z,93676.94
2023-03-17T02:30:04.059Z,93657.06
2023-03-17T02:32:36.409Z,93663.75
2023-03-17T02:35:05.797Z,93667.66
2023-03-17T02:37:34.107Z,93670.47
2023-03-17T02:40:02.883Z,93673.97
2023-03-17T02:42:30.802Z,93680.25
2023-03-17T02:44:59.843Z,93682.66
2023-03-17T02:47:27.895Z,93685.88
2023-03-17T02:49:55.938Z,93689.91
2023-03-17T02:52:23.929Z,93676.31
2023-03-17T02:57:00.915Z,93693.16
2023-03-17T02:59:28.844Z,93692.13
2023-03-17T03:01:56.724Z,93705.25
2023-03-17T03:04:24.864Z,93698.19
2023-03-17T03:06:52.881Z,93695.81
2023-03-17T03:09:21.694Z,93692.75
2023-03-17T03:11:49.573Z,93676.75
2023-03-17T03:14:17.589Z,93701.28
2023-03-17T03:16:47.114Z,93704.94
2023-03-17T03:19:15.028Z,93700.84
2023-03-17T03:21:43.095Z,93703.72
2023-03-17T03:24:11.263Z,93696.44
2023-03-17T03:26:39.204Z,93694.25
2023-03-17T03:29:07.141Z,93696.47
2023-03-17T03:31:35.427Z,93695.50
2023-03-17T03:34:03.502Z,93702.97
2023-03-17T03:36:32.532Z,93702.16
2023-03-17T03:39:01.427Z,93709.03
2023-03-17T03:41:29.588Z,93707.22
2023-03-17T03:43:57.493Z,93704.00
2023-03-17T03:46:26.849Z,93707.81
2023-03-17T03:48:54.862Z,93719.56
2023-03-17T03:51:23.044Z,93724.22
2023-03-17T03:53:50.879Z,93726.84
2023-03-17T03:56:18.878Z,93723.81
2023-03-17T03:58:47.225Z,93733.50
2023-03-17T04:01:17.541Z,93726.19
2023-03-17T04:03:47.523Z,93736.94
2023-03-17T04:06:16.441Z,93739.19
2023-03-17T04:08:44.203Z,93734.16
2023-03-17T04:11:12.200Z,93740.84
2023-03-17T04:13:40.204Z,93737.81
2023-03-17T04:16:08.647Z,93739.66
2023-03-17T04:18:36.615Z,93733.59
2023-03-17T04:21:06.677Z,93741.22
2023-03-17T04:23:34.794Z,93743.44
2023-03-17T04:26:04.352Z,93746.03
2023-03-17T04:28:34.373Z,93742.75
2023-03-17T04:31:02.515Z,93750.03
2023-03-17T04:33:30.587Z,93741.47
2023-03-17T04:35:58.806Z,93759.53
2023-03-17T04:38:26.940Z,93753.06
2023-03-17T04:41:00.929Z,93754.91
2023-03-17T04:43:29.144Z,93762.56
2023-03-17T04:45:57.162Z,93760.94
2023-03-17T04:48:25.211Z,93768.44
2023-03-17T04:50:53.365Z,93771.47
2023-03-17T04:53:21.318Z,93767.25
2023-03-17T04:55:49.326Z,93763.44
2023-03-17T04:58:29.966Z,93759.59
2023-03-17T05:00:59.683Z,93769.34
2023-03-17T05:03:28.631Z,93765.31
2023-03-17T05:06:00.040Z,93756.81
2023-03-17T05:08:28.684Z,93773.84
2023-03-17T05:10:57.584Z,93784.78
2023-03-17T05:13:27.433Z,93785.19
2023-03-17T05:15:56.472Z,93792.47
2023-03-17T05:18:25.808Z,93796.72
2023-03-17T05:20:54.704Z,93787.00
2023-03-17T05:23:23.340Z,93801.97
2023-03-17T05:25:51.472Z,93806.22
2023-03-17T05:28:21.230Z,93812.47
2023-03-17T05:30:49.760Z,93812.56
2023-03-17T05:33:17.905Z,93814.59
2023-03-17T05:35:46.811Z,93808.94
2023-03-17T05:38:16.315Z,93811.41
2023-03-17T05:40:44.939Z,93814.00
2023-03-17T05:43:14.230Z,93816.88
2023-03-17T05:45:42.609Z,93814.84
2023-03-17T05:48:12.539Z,93816.09
2023-03-17T05:50:41.917Z,93829.47
2023-03-17T05:53:10.035Z,93830.91
2023-03-17T05:55:38.096Z,93826.25
2023-03-17T05:58:06.754Z,93826.41
2023-03-17T06:00:35.851Z,93828.66
2023-03-17T06:03:05.114Z,93840.66
2023-03-17T06:05:33.267Z,93837.44
2023-03-17T06:08:02.245Z,93844.25
2023-03-17T06:10:30.519Z,93849.53
2023-03-17T06:12:59.256Z,93858.09
2023-03-17T06:15:29.377Z,93847.56
2023-03-17T06:17:57.564Z,93856.28
2023-03-17T06:20:26.024Z,93867.38
2023-03-17T06:23:04.019Z,93875.50
2023-03-17T06:25:35.160Z,93875.91
2023-03-17T06:28:05.778Z,93882.38
2023-03-17T06:30:35.110Z,93881.00
2023-03-17T06:33:04.088Z,93884.88
2023-03-17T06:35:33.822Z,93884.28
2023-03-17T06:38:03.733Z,93886.94
2023-03-17T06:40:32.468Z,93883.75
2023-03-17T06:43:01.493Z,93873.81
2023-03-17T06:45:29.809Z,93887.63
2023-03-17T06:47:58.053Z,93888.25
2023-03-17T06:50:26.232Z,93893.50
2023-03-17T06:52:54.371Z,93898.97
2023-03-17T06:55:23.449Z,93895.94
2023-03-17T06:57:51.562Z,93895.13
2023-03-17T07:00:21.248Z,93895.16
2023-03-17T07:02:49.908Z,93888.09
2023-03-17T07:05:18.138Z,93883.44
2023-03-17T07:07:46.542Z,93874.72
2023-03-17T07:10:16.048Z,93862.75
2023-03-17T07:12:44.960Z,93883.47
2023-03-17T07:15:13.243Z,93886.09
2023-03-17T07:17:47.059Z,93886.09
2023-03-17T07:20:15.252Z,93889.53
2023-03-17T07:22:43.170Z,93889.97
2023-03-17T07:25:11.276Z,93891.78
2023-03-17T07:27:39.662Z,93896.84
2023-03-17T07:30:08.226Z,93897.66
2023-03-17T07:32:36.547Z,93900.94
2023-03-17T07:35:05.528Z,93898.06
2023-03-17T07:37:33.623Z,93896.81
2023-03-17T07:40:01.800Z,93901.88
2023-03-17T07:42:30.362Z,93905.34
2023-03-17T07:44:58.605Z,93909.81
2023-03-17T07:47:26.548Z,93911.66
2023-03-17T07:49:55.178Z,93916.28
2023-03-17T07:52:23.296Z,93914.03
2023-03-17T07:54:52.357Z,93925.19
2023-03-17T07:57:20.273Z,93911.94
2023-03-17T07:59:48.247Z,93917.19
2023-03-17T08:02:17.804Z,93909.84
2023-03-17T08:04:46.273Z,93916.31
2023-03-17T08:07:15.891Z,93895.06
2023-03-17T08:09:44.331Z,93920.38
2023-03-17T08:12:12.458Z,93909.59
2023-03-17T08:14:41.642Z,93887.06
2023-03-17T08:17:09.699Z,93928.84
2023-03-17T08:19:38.431Z,93921.28
2023-03-17T08:22:06.944Z,93925.56
2023-03-17T08:24:35.705Z,93918.63
2023-03-17T08:27:04.281Z,93927.41
2023-03-17T08:29:32.342Z,93927.16
2023-03-17T08:32:00.205Z,93927.81
2023-03-17T08:34:28.191Z,93910.03
2023-03-17T08:36:56.928Z,93926.91
2023-03-17T08:39:25.500Z,93910.25
2023-03-17T08:41:53.914Z,93924.19
2023-03-17T08:44:22.131Z,93931.03
2023-03-17T08:46:51.658Z,93933.72
2023-03-17T08:49:19.756Z,93932.63
2023-03-17T08:51:47.724Z,93932.38
2023-03-17T08:54:16.159Z,93931.63
2023-03-17T08:56:44.161Z,93929.47
2023-03-17T08:59:12.708Z,93909.63
2023-03-17T09:01:40.616Z,93932.91
2023-03-17T09:04:09.159Z,93929.78
2023-03-17T09:06:38.817Z,93927.69
2023-03-17T09:09:07.944Z,93912.56
2023-03-17T09:11:38.099Z,93925.84
2023-03-17T09:14:06.077Z,93929.28
2023-03-17T09:16:34.514Z,93929.69
2023-03-17T09:19:04.051Z,93923.59
2023-03-17T09:21:32.245Z,93924.97
2023-03-17T09:24:02.407Z,93934.41
2023-03-17T09:26:30.980Z,93933.25
2023-03-17T09:28:59.460Z,93931.13
2023-03-17T09:31:27.494Z,93928.53
2023-03-17T09:33:55.515Z,93926.19
2023-03-17T09:36:24.419Z,93923.97
2023-03-17T09:38:52.681Z,93925.16
2023-03-17T09:41:43.514Z,93935.56
2023-03-17T09:44:23.738Z,93923.72
2023-03-17T09:47:01.115Z,93936.22
2023-03-17T09:49:37.345Z,93931.28
2023-03-17T09:52:05.649Z,93927.28
2023-03-17T09:54:38.070Z,93927.44
2023-03-17T09:57:18.329Z,93930.47
2023-03-17T09:59:50.996Z,93927.38
2023-03-17T10:02:32.859Z,93924.00
2023-03-17T10:05:20.774Z,93922.16
2023-03-17T10:08:28.923Z,93925.25
2023-03-17T10:11:04.984Z,93936.66
2023-03-17T10:13:44.534Z,93934.09
2023-03-17T10:16:14.856Z,93933.22
2023-03-17T10:19:02.967Z,93930.69
2023-03-17T10:21:35.313Z,93934.06
2023-03-17T10:24:05.634Z,93937.09
2023-03-17T10:27:07.250Z,93925.59
2023-03-17T10:29:35.337Z,93932.00
2023-03-17T10:32:04.523Z,93932.69
2023-03-17T10:34:34.289Z,93933.72
2023-03-17T10:37:21.456Z,93928.59
2023-03-17T10:39:56.508Z,93935.03
2023-03-17T10:42:30.575Z,93926.56
2023-03-17T10:45:13.977Z,93926.91
2023-03-17T10:47:47.425Z,93915.78
2023-03-17T10:50:15.762Z,93915.50
2023-03-17T10:52:46.900Z,93920.72
2023-03-17T10:55:21.643Z,93925.91
2023-03-17T10:58:02.558Z,93923.28
2023-03-17T11:00:35.498Z,93901.19
2023-03-17T11:03:16.922Z,93913.84
2023-03-17T11:05:55.416Z,93909.59
2023-03-17T11:08:23.785Z,93911.88
2023-03-17T11:10:57.174Z,93891.78
2023-03-17T11:13:30.832Z,93898.34
2023-03-17T11:16:22.462Z,93885.63
2023-03-17T11:18:55.739Z,93893.75
2023-03-17T11:21:32.724Z,93891.53
2023-03-17T11:24:16.271Z,93891.31
2023-03-17T11:27:01.454Z,93886.06
2023-03-17T11:29:44.429Z,93889.31
2023-03-17T11:32:33.932Z,93879.97
2023-03-17T11:35:08.586Z,93874.75
2023-03-17T11:38:01.275Z,93868.75
2023-03-17T11:40:52.182Z,93851.97
2023-03-17T11:43:58.024Z,93864.59
2023-03-17T11:46:33.444Z,93866.44
2023-03-17T11:49:10.174Z,93864.47
2023-03-17T11:52:11.456Z,93861.03
2023-03-17T11:54:58.994Z,93862.59
2023-03-17T11:57:39.408Z,93865.91
2023-03-17T12:00:34.157Z,93867.25
2023-03-17T12:03:18.098Z,93868.34
2023-03-17T12:05:54.904Z,93867.97
2023-03-17T12:08:57.932Z,93867.63
2023-03-17T12:11:30.020Z,93872.09
2023-03-17T12:14:22.261Z,93869.69
2023-03-17T12:17:02.641Z,93872.00
2023-03-17T12:19:57.422Z,93831.91
2023-03-17T12:22:33.960Z,93863.31
2023-03-17T12:25:20.993Z,93869.34
2023-03-17T12:27:53.515Z,93851.78
2023-03-17T12:30:33.397Z,93854.84
2023-03-17T12:33:16.191Z,93854.72
2023-03-17T12:35:44.875Z,93851.19
2023-03-17T12:38:20.082Z,93857.81
2023-03-17T12:40:54.210Z,93861.97
2023-03-17T12:43:34.196Z,93852.53
2023-03-17T12:46:17.283Z,93852.22
2023-03-17T12:48:51.109Z,93847.34
2023-03-17T12:51:22.323Z,93851.53
2023-03-17T12:53:52.224Z,93849.09
2023-03-17T12:56:28.142Z,93838.78
2023-03-17T12:59:22.377Z,93833.34
2023-03-17T13:01:59.083Z,93838.78
2023-03-17T13:04:33.163Z,93834.28
2023-03-17T13:07:10.938Z,93848.63
2023-03-17T13:09:51.085Z,93845.16
2023-03-17T13:12:40.611Z,93838.94
2023-03-17T13:15:48.733Z,93843.88
2023-03-17T13:18:16.909Z,93858.56
2023-03-17T13:20:51.670Z,93848.84
2023-03-17T13:23:24.174Z,93852.22
2023-03-17T13:25:54.078Z,93848.81
2023-03-17T13:28:47.873Z,93850.41
2023-03-17T13:31:28.602Z,93860.25
2023-03-17T13:34:02.958Z,93851.41
2023-03-17T13:36:37.379Z,93859.03
2023-03-17T13:39:43.221Z,93822.88
2023-03-17T13:42:38.420Z,93856.28
2023-03-17T13:45:44.805Z,93857.41
2023-03-17T13:48:33.268Z,93861.28
2023-03-17T13:51:15.096Z,93859.13
2023-03-17T13:53:51.219Z,93868.09
2023-03-17T13:56:22.034Z,93856.22
2023-03-17T13:59:02.594Z,93860.38
2023-03-17T14:01:41.715Z,93863.75
2023-03-17T14:04:29.309Z,93862.75
2023-03-17T14:07:05.639Z,93864.81
2023-03-17T14:09:36.042Z,93865.69
2023-03-17T14:12:43.659Z,93874.69
2023-03-17T14:15:25.631Z,93874.00
2023-03-17T14:18:22.217Z,93878.69
2023-03-17T14:20:55.923Z,93873.53
2023-03-17T14:23:24.778Z,93898.03
2023-03-17T14:25:56.301Z,93889.91
2023-03-17T14:28:28.653Z,93895.81
2023-03-17T14:31:03.788Z,93885.19
2023-03-17T14:33:38.697Z,93889.47
2023-03-17T14:36:11.217Z,93880.28
2023-03-17T14:38:51.420Z,93889.53
2023-03-17T14:41:26.664Z,93877.03
2023-03-17T14:43:59.898Z,93889.75
2023-03-17T14:46:41.565Z,93883.31
2023-03-17T14:49:18.030Z,93893.78
2023-03-17T14:51:50.557Z,93891.91
2023-03-17T14:54:32.735Z,93894.31
2023-03-17T14:57:09.550Z,93890.66
2023-03-17T14:59:41.402Z,93886.44
2023-03-17T15:02:23.584Z,93890.59
2023-03-17T15:04:58.700Z,93886.13
2023-03-17T15:07:40.189Z,93891.34
2023-03-17T15:10:22.607Z,93897.81
2023-03-17T15:13:01.196Z,93893.84
2023-03-17T15:15:33.565Z,93889.34
2023-03-17T15:18:12.325Z,93890.94
2023-03-17T15:20:43.996Z,93897.25
2023-03-17T15:23:20.409Z,93892.41
2023-03-17T15:25:56.190Z,93895.50
2023-03-17T15:28:31.783Z,93901.41
2023-03-17T15:31:13.092Z,93902.66
2023-03-17T15:33:43.050Z,93894.53
2023-03-17T15:36:31.456Z,93899.00
2023-03-17T15:39:03.883Z,93895.88
2023-03-17T15:41:32.482Z,93897.09
2023-03-17T15:44:00.816Z,93902.38
2023-03-17T15:46:31.992Z,93899.75
2023-03-17T15:49:00.771Z,93910.59
2023-03-17T15:51:29.146Z,93905.16
2023-03-17T15:53:57.902Z,93906.00
2023-03-17T15:56:26.738Z,93906.28
2023-03-17T15:58:56.445Z,93911.97
2023-03-17T16:01:27.780Z,93915.66
2023-03-17T16:03:56.657Z,93859.47
2023-03-17T16:06:25.645Z,93914.22
2023-03-17T16:08:54.039Z,93917.28
2023-03-17T16:11:28.980Z,93913.63
2023-03-17T16:14:02.674Z,93914.41
2023-03-17T16:16:38.188Z,93919.13
2023-03-17T16:19:10.495Z,93908.97
2023-03-17T16:21:44.195Z,93917.53
2023-03-17T16:24:22.029Z,93921.78
2023-03-17T16:26:52.350Z,93922.59
2023-03-17T16:29:22.039Z,93923.44
2023-03-17T16:31:51.536Z,93927.72
2023-03-17T16:34:24.035Z,93926.88
2023-03-17T16:36:54.572Z,93908.19
2023-03-17T16:39:24.038Z,93930.34
2023-03-17T16:41:53.941Z,93918.34
2023-03-17T16:44:23.839Z,93925.28
2023-03-17T16:46:52.729Z,93935.25
2023-03-17T16:49:25.470Z,93927.50
2023-03-17T16:51:54.139Z,93942.53
2023-03-17T16:54:22.444Z,93938.06
2023-03-17T16:56:51.429Z,93944.38
2023-03-17T16:59:22.326Z,93942.53
2023-03-17T17:01:51.433Z,93947.56
2023-03-17T17:12:27.635Z,93952.97
2023-03-17T17:23:23.396Z,93958.69
2023-03-17T17:34:03.714Z,93974.56
2023-03-17T17:47:24.835Z,93963.94
2023-03-17T17:50:03.870Z,93967.97
2023-03-17T17:57:58.584Z,93985.00
2023-03-17T18:27:44.436Z,93991.13
2023-03-17T18:52:13.401Z,93993.50
2023-03-17T19:08:23.076Z,93990.66
2023-03-17T19:21:42.220Z,93998.03
2023-03-17T19:35:02.052Z,93991.25
2023-03-17T20:07:19.009Z,93986.91
2023-03-17T20:23:30.211Z,93982.25
2023-03-17T21:03:58.381Z,93977.94
2023-03-17T21:06:30.132Z,93974.91
2023-03-17T21:14:29.257Z,93972.47
2023-03-17T21:36:03.689Z,93956.13
2023-03-17T21:38:32.618Z,93952.75
2023-03-17T21:41:38.069Z,93963.72
2023-03-17T21:44:08.770Z,93966.50
2023-03-17T21:46:37.429Z,93953.97
2023-03-17T21:49:05.960Z,93957.94
2023-03-17T21:51:35.228Z,93959.41
2023-03-17T21:54:04.214Z,93958.59
2023-03-17T21:56:32.678Z,93945.78
2023-03-17T21:59:01.249Z,93958.94
2023-03-17T22:01:29.542Z,93951.06
2023-03-17T22:03:57.915Z,93953.22
2023-03-17T22:06:27.788Z,93951.13
2023-03-17T22:08:56.083Z,93956.91
2023-03-17T22:11:24.165Z,93950.81
2023-03-17T22:13:52.524Z,93943.28
2023-03-17T22:16:21.765Z,93955.50
2023-03-17T22:18:49.712Z,93957.94
2023-03-17T22:21:18.280Z,93958.78
2023-03-17T22:23:46.538Z,93956.69
2023-03-17T22:26:17.535Z,93961.22
2023-03-17T22:28:48.784Z,93963.59
2023-03-17T22:31:20.872Z,93948.63
2023-03-17T22:33:50.664Z,93950.06
2023-03-17T22:36:19.249Z,93950.41
2023-03-17T22:38:47.733Z,93949.78
2023-03-17T22:41:21.851Z,93954.13
2023-03-17T22:43:50.904Z,93945.41
2023-03-17T22:46:19.888Z,93944.03
2023-03-17T22:48:48.153Z,93950.41
2023-03-17T22:51:21.677Z,93954.09
2023-03-17T22:53:51.095Z,93937.88
2023-03-17T22:56:19.972Z,93943.72
2023-03-17T22:58:48.201Z,93945.31
2023-03-17T23:01:18.171Z,93931.72
2023-03-17T23:03:46.491Z,93928.78
2023-03-17T23:06:14.969Z,93937.16
2023-03-17T23:08:44.340Z,93931.31
2023-03-17T23:11:18.628Z,93935.78
2023-03-17T23:13:47.847Z,93928.75
2023-03-17T23:16:16.498Z,93932.66
2023-03-17T23:18:46.749Z,93909.97
2023-03-17T23:21:22.065Z,93936.03
2023-03-17T23:23:50.367Z,93926.84
2023-03-17T23:26:18.656Z,93930.34
2023-03-17T23:28:46.712Z,93930.34
2023-03-17T23:31:16.931Z,93936.09
2023-03-17T23:33:47.031Z,93938.38
2023-03-17T23:36:17.264Z,93933.84
2023-03-17T23:38:46.329Z,93932.41
2023-03-17T23:41:15.519Z,93917.50
2023-03-17T23:43:44.263Z,93933.06
2023-03-17T23:46:13.696Z,93926.53
2023-03-17T23:48:43.077Z,93925.28
2023-03-17T23:51:12.639Z,93930.50
2023-03-17T23:53:41.965Z,93930.56
2023-03-17T23:56:11.637Z,93924.84
2023-03-17T23:58:43.653Z,93920.91
